createdAt,value
2023-03-23T16:00:13.919Z,4.13
2023-03-23T16:02:47.008Z,8.63
2023-03-23T16:05:22.630Z,5.20
2023-03-23T16:07:56.913Z,4.63
2023-03-23T16:10:30.306Z,5.97
2023-03-23T16:13:04.430Z,6.33
2023-03-23T16:15:33.405Z,10.60
2023-03-23T16:18:10.881Z,6.00
2023-03-23T16:20:47.792Z,9.53
2023-03-23T16:23:29.690Z,7.30
2023-03-23T16:26:00.697Z,8.07
2023-03-23T16:28:37.343Z,7.60
2023-03-23T16:31:12.039Z,11.93
2023-03-23T16:33:49.076Z,7.30
2023-03-23T16:36:22.836Z,9.07
2023-03-23T16:38:57.029Z,7.20
2023-03-23T16:41:28.395Z,8.00
2023-03-23T16:43:58.564Z,6.50
2023-03-23T16:46:28.983Z,7.00
2023-03-23T16:49:00.882Z,7.40
2023-03-23T16:51:31.286Z,7.03
2023-03-23T16:54:06.405Z,11.83
2023-03-23T16:56:35.640Z,5.33
2023-03-23T16:59:10.837Z,12.50
2023-03-23T17:01:52.441Z,9.40
2023-03-23T17:04:34.197Z,12.90
2023-03-23T17:07:03.650Z,6.53
2023-03-23T17:09:37.238Z,11.10
2023-03-23T17:12:09.171Z,7.57
2023-03-23T17:14:41.498Z,7.53
2023-03-23T17:17:18.920Z,8.20
2023-03-23T17:20:00.922Z,10.17
2023-03-23T17:22:31.043Z,9.10
2023-03-23T17:25:10.318Z,8.97
2023-03-23T17:27:45.146Z,9.03
2023-03-23T17:30:18.336Z,10.33
2023-03-23T17:33:12.635Z,8.23
2023-03-23T17:35:47.982Z,14.33
2023-03-23T17:38:19.455Z,11.50
2023-03-23T17:41:08.221Z,11.57
2023-03-23T17:43:41.224Z,11.70
2023-03-23T17:46:11.954Z,12.37
2023-03-23T17:48:49.144Z,18.10
2023-03-23T17:51:22.171Z,12.33
2023-03-23T17:54:03.416Z,18.30
2023-03-23T17:56:35.114Z,16.70
2023-03-23T17:59:06.828Z,15.80
2023-03-23T18:01:49.796Z,12.02
2023-03-23T18:04:41.153Z,11.40
2023-03-23T18:07:24.873Z,17.07
2023-03-23T18:12:50.082Z,15.20
2023-03-23T18:15:28.249Z,13.80
2023-03-23T18:18:27.160Z,20.13
2023-03-23T18:21:29.956Z,12.83
2023-03-23T18:24:00.237Z,15.60
2023-03-23T18:26:41.283Z,15.80
2023-03-23T18:29:27.136Z,17.67
2023-03-23T18:32:22.084Z,15.27
2023-03-23T18:35:00.559Z,15.37
2023-03-23T18:37:40.144Z,13.07
2023-03-23T18:40:26.025Z,18.58
2023-03-23T18:43:01.021Z,22.30
2023-03-23T18:45:39.979Z,17.10
2023-03-23T18:48:28.664Z,17.80
2023-03-23T18:51:03.152Z,18.77
2023-03-23T18:53:50.185Z,17.37
2023-03-23T18:56:33.931Z,20.07
2023-03-23T18:59:09.712Z,27.23
2023-03-23T19:01:46.291Z,18.70
2023-03-23T19:04:27.769Z,24.37
2023-03-23T19:07:02.835Z,18.95
2023-03-23T19:09:38.050Z,27.40
2023-03-23T19:12:19.971Z,21.00
2023-03-23T19:15:02.727Z,18.43
2023-03-23T19:17:34.188Z,17.57
2023-03-23T19:20:07.211Z,15.57
2023-03-23T19:22:38.171Z,15.67
2023-03-23T19:25:28.939Z,19.57
2023-03-23T19:30:44.905Z,15.60
2023-03-23T19:33:20.124Z,17.47
2023-03-23T19:36:10.827Z,18.17
2023-03-23T19:38:49.280Z,23.47
2023-03-23T19:41:36.341Z,19.77
2023-03-23T19:44:14.576Z,18.30
2023-03-23T19:47:10.052Z,17.53
2023-03-23T19:50:08.277Z,18.50
2023-03-23T19:52:42.162Z,20.23
2023-03-23T19:55:15.757Z,18.20
2023-03-23T19:57:54.252Z,19.10
2023-03-23T20:00:35.841Z,20.13
2023-03-23T20:03:23.271Z,19.67
2023-03-23T20:06:10.061Z,16.87
2023-03-23T20:09:10.168Z,17.30
2023-03-23T20:11:43.842Z,19.73
2023-03-23T20:14:29.393Z,20.50
2023-03-23T20:17:03.733Z,17.03
2023-03-23T20:19:40.283Z,17.50
2023-03-23T20:22:15.053Z,22.13
2023-03-23T20:24:48.291Z,19.30
2023-03-23T20:27:23.398Z,17.50
2023-03-23T20:30:20.114Z,19.38
2023-03-23T20:32:59.613Z,20.92
2023-03-23T20:35:38.136Z,25.23
2023-03-23T20:38:09.539Z,22.47
2023-03-23T20:40:41.049Z,19.87
2023-03-23T20:43:17.518Z,21.70
2023-03-23T20:45:51.168Z,23.43
2023-03-23T20:48:28.621Z,18.47
2023-03-23T20:51:11.380Z,23.60
2023-03-23T20:53:41.417Z,17.17
2023-03-23T20:56:12.286Z,22.33
2023-03-23T20:58:48.882Z,23.60
2023-03-23T21:01:28.630Z,20.73
2023-03-23T21:04:16.754Z,15.30
2023-03-23T21:06:55.797Z,18.57
2023-03-23T21:09:26.141Z,16.67
2023-03-23T21:11:58.285Z,12.37
2023-03-23T21:14:28.245Z,12.50
2023-03-23T21:17:01.498Z,16.70
2023-03-23T21:19:37.926Z,22.33
2023-03-23T21:22:10.204Z,13.17
2023-03-23T21:24:41.181Z,13.55
2023-03-23T21:27:23.434Z,11.83
2023-03-23T21:29:57.450Z,17.50
2023-03-23T21:32:48.027Z,13.10
2023-03-23T21:35:30.205Z,15.10
2023-03-23T21:38:06.028Z,12.70
2023-03-23T21:40:48.556Z,13.60
2023-03-23T21:43:17.277Z,16.93
2023-03-23T21:45:47.936Z,14.17
2023-03-23T21:48:26.532Z,22.13
2023-03-23T21:50:57.740Z,15.10
2023-03-23T21:53:28.594Z,17.17
2023-03-23T21:56:07.530Z,16.77
2023-03-23T21:58:37.085Z,13.10
2023-03-23T22:01:12.283Z,14.30
2023-03-23T22:03:45.185Z,12.70
2023-03-23T22:06:18.543Z,19.23
2023-03-23T22:08:51.045Z,13.47
2023-03-23T22:11:23.452Z,8.50
2023-03-23T22:13:53.843Z,12.20
2023-03-23T22:16:24.288Z,12.90
2023-03-23T22:19:00.998Z,12.67
2023-03-23T22:21:32.334Z,11.70
2023-03-23T22:24:09.789Z,10.82
2023-03-23T22:26:39.161Z,10.50
2023-03-23T22:29:07.588Z,11.90
2023-03-23T22:31:42.620Z,10.87
2023-03-23T22:34:18.243Z,11.73
2023-03-23T22:36:50.101Z,9.90
2023-03-23T22:39:19.434Z,12.27
2023-03-23T22:41:59.038Z,13.80
2023-03-23T22:44:29.197Z,10.23
2023-03-23T22:46:58.400Z,10.27
2023-03-23T22:49:31.413Z,8.83
2023-03-23T22:52:05.178Z,11.33
2023-03-23T22:54:36.628Z,16.65
2023-03-23T22:57:08.305Z,10.23
2023-03-23T22:59:39.434Z,13.33
2023-03-23T23:02:11.292Z,14.50
2023-03-23T23:04:46.778Z,11.73
2023-03-23T23:07:21.300Z,12.30
2023-03-23T23:09:51.426Z,11.90
2023-03-23T23:12:30.346Z,12.30
2023-03-23T23:15:13.270Z,10.70
2023-03-23T23:17:44.169Z,12.57
2023-03-23T23:20:21.482Z,13.53
2023-03-23T23:22:50.876Z,14.33
2023-03-23T23:25:24.963Z,18.90
2023-03-23T23:27:54.630Z,13.23
2023-03-23T23:30:26.259Z,17.13
2023-03-23T23:32:56.871Z,16.77
2023-03-23T23:35:37.116Z,15.17
2023-03-23T23:38:07.337Z,17.20
2023-03-23T23:40:35.820Z,14.43
2023-03-23T23:43:16.077Z,16.93
2023-03-23T23:45:50.649Z,17.07
2023-03-23T23:48:26.721Z,21.43
2023-03-23T23:51:04.516Z,15.23
2023-03-23T23:53:34.915Z,20.50
2023-03-23T23:56:06.636Z,21.90
2023-03-23T23:58:35.995Z,22.63
